Time;durP1;ratioP1;P1;durP2;ratioP2;P2;SDS_P1;SDS_P2;PMS_P1;PMS_P2;Temp;Humidity;BMP_temperature;BMP_pressure;BME280_temperature;BME280_humidity;BME280_pressure;Samples;Min_cycle;Max_cycle;Signal;HPM_P1;HPM_P2
2022/05/21 04:00:27;;;;;;;11.63;3.45;;;13.30;99.90;;;;;;5938963;23;21064;-81
2022/05/21 04:02:56;;;;;;;13.30;3.58;;;13.30;99.90;;;;;;4958568;28;20399;-79
2022/05/21 04:05:23;;;;;;;15.60;3.65;;;13.30;99.90;;;;;;4975785;28;20042;-82
2022/05/21 04:07:49;;;;;;;20.08;3.47;;;13.30;99.90;;;;;;4976556;28;20035;-82
2022/05/21 04:10:16;;;;;;;11.57;3.33;;;13.30;99.90;;;;;;4958541;28;20053;-83
2022/05/21 04:12:43;;;;;;;16.42;3.35;;;13.30;99.90;;;;;;4958825;28;20046;-82
2022/05/21 04:15:10;;;;;;;14.25;3.90;;;13.30;99.90;;;;;;4958508;28;20061;-83
2022/05/21 04:17:35;;;;;;;18.50;3.90;;;13.20;99.90;;;;;;4958513;28;20090;-83
2022/05/21 04:20:04;;;;;;;12.40;2.92;;;13.20;99.90;;;;;;4958409;28;20035;-85
2022/05/21 04:22:29;;;;;;;18.20;3.25;;;13.20;99.90;;;;;;4975941;28;20477;-83
2022/05/21 04:24:55;;;;;;;17.25;3.47;;;13.20;99.90;;;;;;4958876;28;20042;-82
2022/05/21 04:27:20;;;;;;;14.18;3.45;;;13.20;99.90;;;;;;4975921;28;20110;-84
2022/05/21 04:29:46;;;;;;;19.30;4.00;;;13.20;99.90;;;;;;4976157;28;20054;-82
2022/05/21 04:32:12;;;;;;;19.05;3.95;;;13.10;99.90;;;;;;4942263;28;20042;-83
2022/05/21 04:34:37;;;;;;;20.63;3.63;;;13.20;99.90;;;;;;4975909;28;20046;-82
2022/05/21 04:37:03;;;;;;;20.65;4.03;;;13.20;99.90;;;;;;4975730;28;20065;-79
2022/05/21 04:39:29;;;;;;;21.73;4.20;;;13.20;99.90;;;;;;4958204;28;20035;-82
2022/05/21 04:41:55;;;;;;;16.23;3.47;;;13.10;99.90;;;;;;4975534;28;20082;-82
2022/05/21 04:44:22;;;;;;;20.83;4.00;;;13.10;99.90;;;;;;4958485;28;20051;-83
2022/05/21 04:46:47;;;;;;;15.90;4.65;;;13.10;99.90;;;;;;4958450;28;20129;-82
2022/05/21 04:49:13;;;;;;;15.63;3.20;;;13.10;99.90;;;;;;4958264;28;20098;-81
2022/05/21 04:51:38;;;;;;;19.05;4.03;;;13.20;99.90;;;;;;4975331;28;20034;-82
2022/05/21 04:54:04;;;;;;;16.50;3.72;;;13.10;99.90;;;;;;4974850;28;20121;-84
2022/05/21 04:56:34;;;;;;;13.93;2.95;;;13.20;99.90;;;;;;4957728;28;20046;-81
2022/05/21 04:59:00;;;;;;;14.32;2.80;;;13.20;99.90;;;;;;4957666;28;20039;-82
2022/05/21 05:01:25;;;;;;;14.63;3.05;;;13.10;99.90;;;;;;4975064;28;20043;-81
2022/05/21 05:03:51;;;;;;;16.75;3.25;;;13.10;99.90;;;;;;4957702;28;20399;-80
2022/05/21 05:06:16;;;;;;;16.38;3.42;;;13.10;99.90;;;;;;4957487;28;20074;-81
2022/05/21 05:08:42;;;;;;;15.48;3.38;;;13.10;99.90;;;;;;4957483;28;20039;-84
2022/05/21 05:11:08;;;;;;;13.73;3.38;;;13.10;99.90;;;;;;4957569;28;20055;-82
2022/05/21 05:13:33;;;;;;;12.80;2.67;;;13.10;99.90;;;;;;4957374;28;20122;-82
2022/05/21 05:16:00;;;;;;;14.05;2.88;;;13.10;99.90;;;;;;4975612;28;20153;-81
2022/05/21 05:18:27;;;;;;;20.13;3.60;;;13.10;99.90;;;;;;4975102;28;20039;-82
2022/05/21 05:20:53;;;;;;;16.05;3.10;;;13.00;99.90;;;;;;4957455;28;20049;-82
2022/05/21 05:23:19;;;;;;;13.80;2.85;;;13.10;99.90;;;;;;4957674;28;20098;-83
2022/05/21 05:25:45;;;;;;;16.00;3.70;;;13.10;99.90;;;;;;4974888;28;20039;-82
2022/05/21 05:28:14;;;;;;;16.67;3.30;;;13.20;99.90;;;;;;4974966;28;20125;-81
2022/05/21 05:30:40;;;;;;;13.48;3.03;;;13.20;99.90;;;;;;4941523;28;20047;-82
2022/05/21 05:33:06;;;;;;;18.35;4.03;;;13.20;99.90;;;;;;4941413;28;20039;-80
2022/05/21 05:35:31;;;;;;;18.10;3.95;;;13.20;99.90;;;;;;4957142;28;20142;-82
2022/05/21 05:37:57;;;;;;;19.92;3.08;;;13.10;99.90;;;;;;4957592;28;20039;-81
2022/05/21 05:40:22;;;;;;;19.92;4.53;;;13.20;99.90;;;;;;4957850;28;20039;-81
2022/05/21 05:42:48;;;;;;;12.93;3.10;;;13.20;99.90;;;;;;4957961;28;20050;-81
2022/05/21 05:45:15;;;;;;;12.13;2.90;;;13.20;99.90;;;;;;4976124;28;20043;-82
2022/05/21 05:47:41;;;;;;;15.85;3.70;;;13.30;99.90;;;;;;4961500;28;20047;-76
2022/05/21 05:50:08;;;;;;;11.27;2.75;;;13.40;99.90;;;;;;4969675;28;20423;-75
2022/05/21 05:52:33;;;;;;;14.20;3.15;;;13.40;99.90;;;;;;4970374;28;20073;-76
2022/05/21 05:54:59;;;;;;;15.70;3.03;;;13.40;99.90;;;;;;4969532;28;20123;-81
2022/05/21 05:57:24;;;;;;;19.48;4.10;;;13.40;99.90;;;;;;4984102;28;20050;-79
2022/05/21 05:59:51;;;;;;;14.07;3.58;;;13.40;99.90;;;;;;4984026;28;20034;-78
2022/05/21 06:05:13;;;;;;;15.15;2.70;;;13.50;99.90;;;;;;4967883;28;20087;-77
2022/05/21 06:07:48;;;;;;;15.90;3.58;;;13.50;99.90;;;;;;4969059;28;20434;-78
2022/05/21 06:10:18;;;;;;;15.73;3.20;;;13.60;99.90;;;;;;4970516;28;20118;-78
2022/05/21 06:12:43;;;;;;;15.27;3.42;;;13.60;99.90;;;;;;4965118;28;20050;-81
2022/05/21 06:15:11;;;;;;;19.80;3.47;;;13.60;99.90;;;;;;4978090;28;20043;-80
2022/05/21 06:17:38;;;;;;;9.65;2.33;;;13.70;99.90;;;;;;4960521;28;20141;-81
2022/05/21 06:20:06;;;;;;;15.25;3.20;;;13.70;99.90;;;;;;4960646;28;20042;-79
2022/05/21 06:22:32;;;;;;;12.80;3.22;;;13.70;99.90;;;;;;4960627;28;20495;-81
2022/05/21 06:24:59;;;;;;;14.68;3.35;;;13.70;99.90;;;;;;4960284;28;20499;-81
2022/05/21 06:27:24;;;;;;;12.45;2.72;;;13.80;99.90;;;;;;4960681;28;20051;-82
2022/05/21 06:29:50;;;;;;;14.27;3.40;;;13.80;99.90;;;;;;4960517;28;20051;-83
2022/05/21 06:32:16;;;;;;;16.65;2.88;;;13.90;99.90;;;;;;4960441;28;20054;-83
2022/05/21 06:34:42;;;;;;;12.27;2.75;;;13.90;99.90;;;;;;4960374;28;20050;-81
2022/05/21 06:37:10;;;;;;;11.45;2.53;;;13.90;99.90;;;;;;4960289;28;20038;-80
2022/05/21 06:39:38;;;;;;;10.95;2.33;;;13.90;99.90;;;;;;4960041;28;20043;-81
2022/05/21 06:42:04;;;;;;;10.02;2.10;;;14.00;99.90;;;;;;4959826;28;20094;-82
2022/05/21 06:44:30;;;;;;;13.57;2.55;;;14.10;99.90;;;;;;4977693;28;20105;-80
2022/05/21 06:46:57;;;;;;;12.38;2.88;;;14.20;99.90;;;;;;4959844;28;20051;-81
2022/05/21 06:49:26;;;;;;;12.05;2.53;;;14.20;99.90;;;;;;4960582;28;20047;-80
2022/05/21 06:51:53;;;;;;;14.48;3.30;;;14.20;99.90;;;;;;4959673;28;20142;-83
2022/05/21 06:54:19;;;;;;;12.85;3.17;;;14.20;99.90;;;;;;4977389;28;20053;-82
2022/05/21 06:56:45;;;;;;;9.52;2.25;;;14.30;99.90;;;;;;4960023;28;20050;-82
2022/05/21 06:59:10;;;;;;;17.83;3.67;;;14.40;99.90;;;;;;4959476;28;20042;-82
2022/05/21 07:01:36;;;;;;;8.07;2.13;;;14.40;99.90;;;;;;4943730;28;20166;-83
2022/05/21 07:04:02;;;;;;;9.20;2.13;;;14.40;99.90;;;;;;4959649;28;20129;-82
2022/05/21 07:09:12;;;;;;;13.07;2.40;;;14.30;99.90;;;;;;4959838;28;20372;-80
2022/05/21 07:11:39;;;;;;;14.95;2.67;;;14.30;99.90;;;;;;4943307;28;20054;-78
2022/05/21 07:14:06;;;;;;;10.00;1.90;;;14.30;99.90;;;;;;4976812;28;20046;-82
2022/05/21 07:16:32;;;;;;;9.48;2.38;;;14.40;99.90;;;;;;4959163;28;20361;-81
2022/05/21 07:18:57;;;;;;;10.80;2.38;;;14.50;99.90;;;;;;4943110;28;20039;-80
2022/05/21 07:21:23;;;;;;;14.20;2.40;;;14.50;99.90;;;;;;4959617;28;20062;-84
2022/05/21 07:23:49;;;;;;;12.73;1.88;;;14.40;99.90;;;;;;4976794;28;20062;-82
2022/05/21 07:26:17;;;;;;;8.80;1.92;;;14.40;99.90;;;;;;4977180;28;20061;-82
2022/05/21 07:28:42;;;;;;;10.55;1.90;;;14.40;99.90;;;;;;4959404;28;20569;-82
2022/05/21 07:31:09;;;;;;;10.85;2.40;;;14.40;99.90;;;;;;4943231;28;20086;-83
2022/05/21 07:33:35;;;;;;;11.90;2.05;;;14.40;99.90;;;;;;4943193;28;20097;-82
2022/05/21 07:36:01;;;;;;;12.68;2.55;;;14.50;99.90;;;;;;4959221;28;20042;-78
2022/05/21 07:38:27;;;;;;;10.60;2.22;;;14.50;99.90;;;;;;4959011;28;20085;-81
2022/05/21 07:40:53;;;;;;;13.07;2.20;;;14.40;99.90;;;;;;4958901;28;20075;-81
2022/05/21 07:43:27;;;;;;;12.80;3.60;;;14.40;99.90;;;;;;4976429;28;20391;-82
2022/05/21 07:45:57;;;;;;;13.07;3.00;;;14.50;99.90;;;;;;4959120;28;20077;-84
2022/05/21 07:48:23;;;;;;;11.98;2.20;;;14.50;99.90;;;;;;4958699;28;20046;-81
2022/05/21 07:50:52;;;;;;;9.88;1.85;;;14.60;99.90;;;;;;4959122;28;20047;-84
2022/05/21 07:53:20;;;;;;;11.15;2.55;;;14.70;99.90;;;;;;4976283;28;20045;-82
2022/05/21 07:55:48;;;;;;;14.07;2.15;;;14.70;99.90;;;;;;4976350;28;20051;-83
2022/05/21 07:58:14;;;;;;;9.93;2.42;;;14.90;99.90;;;;;;4959004;28;20438;-82
2022/05/21 08:00:41;;;;;;;9.50;2.13;;;14.90;99.90;;;;;;4942588;28;20049;-81
2022/05/21 08:03:09;;;;;;;7.25;2.20;;;14.80;99.90;;;;;;4959085;28;20100;-82
2022/05/21 08:05:40;;;;;;;15.07;2.85;;;14.90;99.90;;;;;;4958790;28;20054;-83
2022/05/21 08:08:07;;;;;;;10.73;1.95;;;15.00;99.90;;;;;;4958628;28;20073;-80
2022/05/21 08:10:34;;;;;;;10.27;2.40;;;15.10;99.90;;;;;;4975919;28;20053;-79
2022/05/21 08:13:00;;;;;;;11.65;2.20;;;15.20;99.90;;;;;;4958866;28;20054;-79
2022/05/21 08:15:25;;;;;;;7.72;1.98;;;15.10;99.90;;;;;;4975934;28;20497;-81
2022/05/21 08:17:51;;;;;;;9.75;2.20;;;15.20;99.90;;;;;;4958243;28;20049;-81
2022/05/21 08:20:17;;;;;;;13.05;2.63;;;15.20;99.90;;;;;;4958498;28;20145;-81
2022/05/21 08:28:13;;;;;;;11.80;2.40;;;15.40;99.90;;;;;;4957513;28;20050;-82
2022/05/21 08:30:44;;;;;;;8.38;2.00;;;15.50;99.90;;;;;;4958091;28;20046;-83
2022/05/21 08:33:10;;;;;;;11.13;2.50;;;15.60;99.90;;;;;;4975436;28;20073;-82
2022/05/21 08:35:38;;;;;;;9.23;2.15;;;15.40;99.90;;;;;;4942092;28;20504;-81
2022/05/21 08:38:04;;;;;;;9.85;2.15;;;15.10;99.90;;;;;;4957870;28;20042;-84
2022/05/21 08:40:49;;;;;;;9.68;1.80;;;15.30;99.90;;;;;;4957952;28;20042;-82
2022/05/21 08:43:20;;;;;;;11.48;2.30;;;15.50;99.90;;;;;;4958530;28;20046;-82
2022/05/21 08:46:10;;;;;;;14.15;2.50;;;15.50;99.90;;;;;;4957769;28;20494;-82
2022/05/21 08:48:49;;;;;;;12.48;2.17;;;15.40;99.90;;;;;;4957886;28;20050;-83
2022/05/21 08:51:23;;;;;;;14.80;2.40;;;15.40;99.90;;;;;;4975801;28;20392;-82
2022/05/21 08:53:51;;;;;;;10.07;2.05;;;15.60;99.90;;;;;;4957621;28;20043;-81
2022/05/21 08:56:18;;;;;;;8.52;2.00;;;15.50;99.90;;;;;;4957488;28;20046;-81
2022/05/21 08:58:48;;;;;;;12.05;2.13;;;15.50;99.90;;;;;;4942370;28;20050;-84
2022/05/21 09:01:18;;;;;;;8.07;2.20;;;15.50;99.90;;;;;;4975222;28;20436;-82
2022/05/21 09:03:44;;;;;;;9.48;1.98;;;15.70;99.90;;;;;;4975212;28;20031;-81
2022/05/21 09:06:27;;;;;;;11.45;2.28;;;15.70;99.90;;;;;;4957609;28;20196;-81
2022/05/21 09:09:02;;;;;;;8.73;2.08;;;15.80;99.90;;;;;;4957868;28;20395;-81
2022/05/21 09:11:49;;;;;;;11.30;2.50;;;15.60;99.90;;;;;;4957446;28;20055;-81
2022/05/21 09:14:22;;;;;;;15.68;2.72;;;15.50;99.90;;;;;;4957361;28;20389;-83
2022/05/21 09:16:54;;;;;;;9.35;2.13;;;15.30;99.90;;;;;;4941593;28;20043;-85
2022/05/21 09:19:49;;;;;;;13.07;2.33;;;15.60;99.90;;;;;;4957363;28;20078;-81
2022/05/21 09:22:17;;;;;;;13.13;2.85;;;15.60;99.90;;;;;;4941508;28;20137;-82
2022/05/21 09:24:48;;;;;;;11.95;2.30;;;15.50;99.90;;;;;;4957313;28;20097;-80
2022/05/21 09:27:32;;;;;;;9.88;2.47;;;15.70;99.90;;;;;;4974611;28;20042;-81
2022/05/21 09:30:16;;;;;;;10.15;2.17;;;16.00;99.90;;;;;;4974766;28;20443;-80
2022/05/21 09:32:46;;;;;;;10.85;2.63;;;16.30;99.90;;;;;;4957039;28;20098;-82
2022/05/21 09:35:16;;;;;;;14.25;2.42;;;16.40;99.90;;;;;;4957052;28;20038;-82
2022/05/21 09:37:44;;;;;;;11.27;2.40;;;16.30;99.90;;;;;;4956985;28;20085;-83
2022/05/21 09:40:25;;;;;;;10.90;2.10;;;16.40;99.90;;;;;;4943199;28;20083;-82
2022/05/21 09:45:36;;;;;;;9.52;1.90;;;16.20;99.90;;;;;;4961041;28;20058;-80
2022/05/21 09:48:05;;;;;;;11.88;2.10;;;16.10;99.90;;;;;;4961956;28;20105;-81
2022/05/21 09:50:48;;;;;;;8.80;1.58;;;16.20;99.90;;;;;;4978584;28;20068;-83
2022/05/21 09:53:25;;;;;;;9.57;2.28;;;16.20;99.90;;;;;;4944827;28;20057;-81
2022/05/21 09:56:03;;;;;;;9.88;2.03;;;16.20;99.90;;;;;;4960697;28;20047;-82
2022/05/21 09:58:33;;;;;;;9.60;2.33;;;16.30;99.90;;;;;;4960818;28;20538;-80
2022/05/21 10:00:58;;;;;;;10.18;2.15;;;16.50;99.90;;;;;;4960916;28;20068;-82
2022/05/21 10:03:47;;;;;;;9.73;2.05;;;16.50;99.90;;;;;;4960846;28;20372;-83
2022/05/21 10:06:25;;;;;;;5.40;1.90;;;16.60;99.90;;;;;;4961246;28;20043;-82
2022/05/21 10:12:15;;;;;;;11.90;2.40;;;16.90;99.90;;;;;;4978077;28;20043;-81
2022/05/21 10:14:48;;;;;;;9.52;2.08;;;16.90;99.90;;;;;;4947332;28;20082;-82
2022/05/21 10:17:27;;;;;;;9.32;1.98;;;17.10;99.90;;;;;;4978215;28;20042;-83
2022/05/21 10:19:58;;;;;;;9.18;2.20;;;17.10;99.90;;;;;;4960842;28;20043;-83
2022/05/21 10:22:33;;;;;;;8.80;2.15;;;17.20;99.90;;;;;;4960305;28;20082;-83
2022/05/21 10:25:17;;;;;;;9.20;1.80;;;17.20;99.90;;;;;;4960184;28;20082;-84
2022/05/21 10:28:01;;;;;;;10.23;2.03;;;17.20;99.90;;;;;;4960162;28;20042;-81
2022/05/21 10:30:35;;;;;;;8.57;1.67;;;16.90;99.90;;;;;;4944370;28;20158;-82
2022/05/21 10:33:16;;;;;;;8.13;1.97;;;16.90;99.90;;;;;;4944049;28;20042;-83
2022/05/21 10:36:10;;;;;;;13.63;2.88;;;16.90;99.90;;;;;;4959925;28;20306;-82
2022/05/21 10:39:00;;;;;;;8.43;2.15;;;16.90;99.90;;;;;;4943978;28;20038;-82
2022/05/21 10:41:47;;;;;;;12.23;2.38;;;16.90;99.90;;;;;;4960099;28;20043;-79
2022/05/21 10:44:37;;;;;;;13.65;2.92;;;16.90;99.90;;;;;;4977523;28;20050;-83
2022/05/21 10:47:13;;;;;;;11.55;2.10;;;17.30;99.90;;;;;;4977475;28;20044;-81
2022/05/21 10:50:22;;;;;;;14.65;2.45;;;17.50;99.90;;;;;;4959818;28;20047;-83
2022/05/21 10:53:16;;;;;;;12.07;2.60;;;17.60;99.90;;;;;;4959509;28;20438;-83
2022/05/21 10:56:07;;;;;;;10.52;2.10;;;17.30;99.90;;;;;;4977136;28;20042;-82
2022/05/21 10:58:55;;;;;;;11.88;1.73;;;16.90;99.90;;;;;;4930728;28;20054;-81
2022/05/21 11:01:39;;;;;;;10.60;2.10;;;16.80;99.90;;;;;;4959305;28;20043;-83
2022/05/21 11:04:30;;;;;;;9.35;2.08;;;16.70;99.90;;;;;;4959472;28;20499;-82
2022/05/21 11:07:08;;;;;;;13.40;2.83;;;16.60;99.90;;;;;;4959810;28;20083;-82
2022/05/21 11:09:49;;;;;;;10.43;2.30;;;16.70;99.90;;;;;;4959414;28;20053;-83
2022/05/21 11:12:29;;;;;;;9.32;2.50;;;16.90;99.90;;;;;;4977514;28;20042;-82
2022/05/21 11:15:05;;;;;;;11.38;2.25;;;16.90;99.90;;;;;;4961398;28;20051;-82
2022/05/21 11:17:49;;;;;;;9.13;2.45;;;16.80;99.90;;;;;;4962113;28;20093;-84
2022/05/21 11:20:25;;;;;;;13.13;2.30;;;16.80;99.90;;;;;;4988408;28;20061;-79
2022/05/21 11:23:11;;;;;;;8.70;1.50;;;17.10;99.90;;;;;;4976767;28;20054;-81
2022/05/21 11:25:51;;;;;;;11.93;2.30;;;17.00;99.90;;;;;;4986968;28;20050;-78
2022/05/21 11:28:29;;;;;;;6.35;1.80;;;17.20;99.90;;;;;;4979706;28;20054;-80
2022/05/21 11:30:57;;;;;;;10.40;1.70;;;17.10;99.90;;;;;;4962976;28;20051;-78
2022/05/21 11:39:04;;;;;;;8.40;1.60;;;17.40;99.90;;;;;;4959558;28;20078;-83
2022/05/21 11:42:07;;;;;;;8.63;1.95;;;17.60;99.90;;;;;;4959271;28;20039;-81
2022/05/21 11:44:58;;;;;;;8.75;2.28;;;17.40;99.90;;;;;;4941840;28;20051;-80
2022/05/21 11:47:26;;;;;;;9.20;1.73;;;17.50;99.90;;;;;;4964238;28;20039;-78
2022/05/21 11:50:01;;;;;;;7.30;1.50;;;17.40;99.90;;;;;;4982311;28;20046;-79
2022/05/21 11:52:29;;;;;;;7.53;1.60;;;17.40;99.90;;;;;;4964088;28;20060;-80
2022/05/21 11:54:58;;;;;;;9.55;1.52;;;17.40;99.90;;;;;;4961095;28;20137;-81
2022/05/21 11:57:37;;;;;;;11.77;2.42;;;17.50;99.90;;;;;;4958544;28;20089;-81
2022/05/21 12:00:17;;;;;;;13.43;1.92;;;17.70;99.90;;;;;;4975955;28;20126;-82
2022/05/21 12:03:04;;;;;;;8.30;1.52;;;17.90;99.90;;;;;;4958424;28;20067;-81
2022/05/21 12:05:33;;;;;;;11.77;2.17;;;17.40;99.90;;;;;;4958779;28;20054;-84
2022/05/21 12:08:36;;;;;;;7.40;1.50;;;17.10;99.90;;;;;;4976148;28;20038;-81
2022/05/21 12:11:11;;;;;;;6.72;1.77;;;17.00;99.90;;;;;;4958277;28;20407;-81
2022/05/21 12:13:39;;;;;;;5.78;1.92;;;17.00;99.90;;;;;;4958267;28;20042;-83
2022/05/21 12:16:16;;;;;;;12.15;1.60;;;17.30;99.90;;;;;;4958263;28;20082;-83
2022/05/21 12:18:47;;;;;;;11.10;1.83;;;17.50;99.90;;;;;;4975829;28;20039;-82
2022/05/21 12:21:37;;;;;;;10.75;1.50;;;17.50;99.90;;;;;;4975707;28;20039;-81
2022/05/21 12:24:23;;;;;;;4.80;1.10;;;17.60;99.90;;;;;;4958858;28;20391;-84
2022/05/21 12:27:01;;;;;;;7.05;1.70;;;17.60;99.90;;;;;;4958023;28;20039;-83
2022/05/21 12:29:31;;;;;;;6.30;1.27;;;17.60;99.90;;;;;;4975851;28;20046;-82
2022/05/21 12:32:00;;;;;;;10.00;1.70;;;17.60;99.90;;;;;;4975443;28;20115;-83
2022/05/21 12:34:40;;;;;;;14.20;2.28;;;17.80;99.90;;;;;;4975123;28;20042;-83
2022/05/21 12:37:20;;;;;;;6.85;1.40;;;17.90;99.90;;;;;;4958046;28;20395;-82
2022/05/21 12:40:01;;;;;;;6.50;1.33;;;18.10;99.90;;;;;;4958085;28;20133;-81
2022/05/21 12:42:44;;;;;;;6.20;1.45;;;17.90;99.90;;;;;;4958276;28;20472;-83
2022/05/21 12:45:29;;;;;;;4.82;1.20;;;18.20;99.90;;;;;;4975338;28;20039;-79
2022/05/21 12:48:18;;;;;;;6.90;1.40;;;18.10;99.90;;;;;;4957612;28;20055;-80
2022/05/21 12:51:04;;;;;;;6.05;1.23;;;18.00;99.90;;;;;;4957658;28;20050;-79
2022/05/21 12:53:42;;;;;;;6.88;1.30;;;18.10;99.90;;;;;;4957625;28;20201;-81
2022/05/21 12:56:37;;;;;;;3.88;1.20;;;17.70;99.90;;;;;;4957423;28;20058;-80
2022/05/21 12:59:29;;;;;;;6.88;1.42;;;17.50;99.90;;;;;;4957416;28;20047;-81
2022/05/21 13:02:16;;;;;;;7.90;2.25;;;17.70;99.90;;;;;;4957520;28;20384;-78
2022/05/21 13:04:45;;;;;;;9.38;1.73;;;17.90;99.90;;;;;;4957655;28;20038;-79
2022/05/21 13:07:30;;;;;;;10.02;2.05;;;17.90;99.90;;;;;;4941449;28;20093;-83
2022/05/21 13:10:00;;;;;;;8.38;1.67;;;17.70;99.90;;;;;;4957248;28;20051;-82
2022/05/21 13:12:41;;;;;;;9.73;1.63;;;17.50;99.90;;;;;;4957125;28;20053;-81
2022/05/21 13:15:13;;;;;;;8.02;1.50;;;17.30;99.90;;;;;;4956785;28;20078;-79
2022/05/21 13:17:50;;;;;;;5.28;1.48;;;17.20;99.90;;;;;;4957341;28;20035;-82
2022/05/21 13:20:19;;;;;;;8.43;1.73;;;17.30;99.90;;;;;;4957346;28;20523;-81
2022/05/21 13:23:09;;;;;;;7.65;1.70;;;16.90;99.90;;;;;;4941244;28;20213;-82
2022/05/21 13:25:36;;;;;;;8.52;1.70;;;16.90;99.90;;;;;;4957499;28;20058;-82
2022/05/21 13:28:14;;;;;;;9.13;1.70;;;16.80;99.90;;;;;;4974595;28;20047;-80
2022/05/21 13:30:46;;;;;;;7.78;2.08;;;16.70;99.90;;;;;;4957194;28;20042;-81
2022/05/21 13:33:15;;;;;;;14.95;2.72;;;16.60;99.90;;;;;;4957493;28;20193;-81
2022/05/21 13:35:43;;;;;;;8.20;1.75;;;16.50;99.90;;;;;;4956884;28;20047;-81
2022/05/21 13:38:13;;;;;;;11.30;3.20;;;16.40;99.90;;;;;;4957069;28;20122;-81
2022/05/21 13:40:49;;;;;;;7.15;1.85;;;16.30;99.90;;;;;;4974390;28;20039;-80
2022/05/21 13:43:16;;;;;;;10.80;2.28;;;16.30;99.90;;;;;;4957029;28;20054;-80
2022/05/21 13:46:00;;;;;;;11.32;2.35;;;16.40;99.90;;;;;;4957238;28;20043;-80
2022/05/21 13:48:35;;;;;;;12.63;2.85;;;16.30;99.90;;;;;;4957095;28;20483;-80
2022/05/21 13:51:01;;;;;;;9.98;2.67;;;16.50;99.90;;;;;;4957322;28;20071;-80
2022/05/21 13:53:29;;;;;;;9.93;2.60;;;16.50;99.90;;;;;;4957059;28;20042;-80
2022/05/21 13:56:03;;;;;;;11.38;2.63;;;16.70;99.90;;;;;;4956866;28;20380;-81
2022/05/21 13:58:35;;;;;;;8.80;2.42;;;17.00;99.90;;;;;;4957142;28;20047;-80
2022/05/21 14:01:04;;;;;;;11.07;2.45;;;17.00;99.90;;;;;;4957068;28;20383;-80
2022/05/21 14:03:46;;;;;;;12.07;2.63;;;16.80;99.90;;;;;;4941007;28;20047;-81
2022/05/21 14:06:18;;;;;;;12.02;2.72;;;16.70;99.90;;;;;;4957010;28;20554;-80
2022/05/21 14:09:04;;;;;;;14.48;2.47;;;16.90;99.90;;;;;;4974162;28;20030;-79
2022/05/21 14:11:30;;;;;;;;;;;16.80;99.90;;;;;;4974234;28;20400;-80
2022/05/21 14:13:55;;;;;;;7.78;2.10;;;16.90;99.90;;;;;;4956713;28;19929;-80
2022/05/21 14:16:36;;;;;;;11.95;2.72;;;17.10;99.90;;;;;;4974172;28;20126;-81
2022/05/21 14:19:17;;;;;;;12.52;2.35;;;17.40;99.90;;;;;;4956635;28;20039;-81
2022/05/21 14:22:02;;;;;;;15.23;2.75;;;17.70;99.90;;;;;;4956597;28;20546;-82
2022/05/21 14:24:39;;;;;;;13.88;2.42;;;17.70;99.90;;;;;;4956572;28;20479;-81
2022/05/21 14:27:27;;;;;;;9.63;2.42;;;17.40;99.90;;;;;;4976386;28;20066;-81
2022/05/21 14:29:58;;;;;;;8.48;2.20;;;17.30;99.90;;;;;;4960258;28;20062;-83
2022/05/21 14:32:38;;;;;;;10.48;2.63;;;17.20;99.90;;;;;;4960394;28;20045;-77
2022/05/21 14:35:10;;;;;;;14.02;2.33;;;17.30;99.90;;;;;;4944277;28;20475;-82
2022/05/21 14:37:36;;;;;;;8.65;2.15;;;17.40;99.90;;;;;;4959940;28;20139;-82
2022/05/21 14:40:03;;;;;;;14.05;2.40;;;17.20;99.90;;;;;;4959895;28;20126;-81
2022/05/21 14:42:29;;;;;;;6.95;2.05;;;17.00;99.90;;;;;;4959884;28;20049;-79
2022/05/21 14:44:55;;;;;;;11.60;2.28;;;16.90;99.90;;;;;;4959912;28;20074;-81
2022/05/21 14:52:54;;;;;;;11.73;2.40;;;16.70;99.90;;;;;;4977785;28;20039;-81
2022/05/21 14:55:22;;;;;;;8.30;2.03;;;16.60;99.90;;;;;;4959901;28;20136;-82
2022/05/21 14:57:48;;;;;;;12.38;2.58;;;16.80;99.90;;;;;;4976902;28;20506;-83
2022/05/21 15:00:16;;;;;;;11.85;2.45;;;16.90;99.90;;;;;;4976814;28;20031;-81
2022/05/21 15:02:41;;;;;;;10.75;2.40;;;17.00;99.90;;;;;;4959574;28;20046;-81
2022/05/21 15:05:08;;;;;;;10.45;2.63;;;17.10;99.90;;;;;;4943728;28;20090;-79
2022/05/21 15:07:36;;;;;;;11.77;2.70;;;16.70;99.90;;;;;;4977032;28;20043;-81
2022/05/21 15:10:03;;;;;;;18.15;2.95;;;16.70;99.90;;;;;;4944360;28;20105;-79
2022/05/21 15:12:29;;;;;;;14.55;2.85;;;16.80;99.90;;;;;;4959229;28;20042;-82
2022/05/21 15:14:55;;;;;;;12.35;2.45;;;16.70;99.90;;;;;;4976949;28;20050;-82
2022/05/21 15:17:21;;;;;;;11.20;2.28;;;16.80;99.90;;;;;;4943140;28;20082;-80
2022/05/21 15:19:46;;;;;;;9.77;2.15;;;16.50;99.90;;;;;;4976925;28;20070;-82
2022/05/21 15:22:15;;;;;;;13.10;2.20;;;16.40;99.90;;;;;;4959454;28;20073;-79
2022/05/21 15:24:40;;;;;;;9.23;2.10;;;16.50;99.90;;;;;;4976770;28;20047;-79
2022/05/21 15:27:07;;;;;;;7.68;1.80;;;16.40;99.90;;;;;;4959504;28;20405;-80
2022/05/21 15:29:33;;;;;;;14.20;2.42;;;16.40;99.90;;;;;;4959403;28;20046;-82
2022/05/21 15:32:00;;;;;;;9.90;1.95;;;16.50;99.90;;;;;;4943096;28;20043;-81
2022/05/21 15:34:26;;;;;;;10.68;2.40;;;16.40;99.90;;;;;;4959152;28;20407;-80
2022/05/21 15:36:51;;;;;;;9.93;1.90;;;16.40;99.90;;;;;;4942781;28;20042;-79
2022/05/21 15:39:17;;;;;;;10.98;2.15;;;16.20;99.90;;;;;;4976576;28;20045;-80
2022/05/21 15:41:42;;;;;;;12.27;2.00;;;16.00;99.90;;;;;;4959114;28;20035;-79
2022/05/21 15:44:08;;;;;;;14.05;2.50;;;16.00;99.90;;;;;;4959226;28;20046;-81
2022/05/21 15:46:34;;;;;;;11.57;1.95;;;16.00;99.90;;;;;;4959005;28;20046;-81
2022/05/21 15:49:00;;;;;;;9.25;1.70;;;15.90;99.90;;;;;;4958817;28;20130;-81
2022/05/21 15:51:26;;;;;;;8.05;2.08;;;16.00;99.90;;;;;;4958861;28;20082;-84
2022/05/21 15:53:57;;;;;;;8.73;1.80;;;16.00;99.90;;;;;;4958936;28;20411;-79
2022/05/21 15:56:23;;;;;;;12.82;1.92;;;15.90;99.90;;;;;;4942480;28;20566;-80
2022/05/21 15:58:49;;;;;;;10.50;1.63;;;16.00;99.90;;;;;;4942369;28;20041;-80
2022/05/21 16:01:23;;;;;;;9.40;1.88;;;16.10;99.90;;;;;;4958137;28;20043;-80
2022/05/21 16:03:51;;;;;;;14.45;2.78;;;16.20;99.90;;;;;;4958525;28;20130;-81
2022/05/21 16:06:18;;;;;;;7.55;1.67;;;16.20;99.90;;;;;;4958601;28;20380;-80
2022/05/21 16:08:44;;;;;;;9.88;2.55;;;16.10;99.90;;;;;;4942413;28;20047;-81
2022/05/21 16:11:20;;;;;;;9.15;1.85;;;15.90;99.90;;;;;;4975630;28;20495;-82
2022/05/21 16:13:46;;;;;;;11.88;2.05;;;15.80;99.90;;;;;;4958254;28;20054;-80
2022/05/21 16:16:12;;;;;;;13.75;2.10;;;15.80;99.90;;;;;;4942248;28;20050;-79
2022/05/21 16:18:38;;;;;;;7.70;2.00;;;15.50;99.90;;;;;;4958024;28;20139;-80
2022/05/21 16:21:05;;;;;;;9.75;2.92;;;15.40;99.90;;;;;;4958021;28;20097;-79
2022/05/21 16:23:31;;;;;;;12.80;2.65;;;15.40;99.90;;;;;;4975708;28;20126;-80
2022/05/21 16:25:56;;;;;;;12.57;1.95;;;15.30;99.90;;;;;;4958059;28;20122;-81
2022/05/21 16:28:24;;;;;;;12.98;2.38;;;15.30;99.90;;;;;;4957953;28;20082;-81
2022/05/21 16:30:50;;;;;;;13.23;2.40;;;15.50;99.90;;;;;;4941924;28;20078;-81
2022/05/21 16:33:16;;;;;;;12.48;2.10;;;15.40;99.90;;;;;;4975414;28;20081;-78
2022/05/21 16:35:43;;;;;;;10.60;2.28;;;15.50;99.90;;;;;;4957813;28;20173;-78
2022/05/21 16:38:10;;;;;;;9.27;1.70;;;15.40;99.90;;;;;;4957787;28;20046;-79
2022/05/21 16:40:36;;;;;;;11.73;1.80;;;15.30;99.90;;;;;;4957893;28;20116;-80
2022/05/21 16:43:02;;;;;;;11.93;1.92;;;15.40;99.90;;;;;;4958062;28;20042;-80
2022/05/21 16:45:28;;;;;;;8.00;1.70;;;15.30;99.90;;;;;;4957678;28;20491;-80
2022/05/21 16:47:54;;;;;;;16.15;2.47;;;15.40;99.90;;;;;;4957611;28;20394;-81
2022/05/21 16:50:20;;;;;;;8.98;2.20;;;15.40;99.90;;;;;;4974867;28;20035;-80
2022/05/21 16:52:48;;;;;;;8.80;2.03;;;15.40;99.90;;;;;;4975138;28;20122;-77
2022/05/21 16:55:14;;;;;;;8.93;2.28;;;15.30;99.90;;;;;;4957387;28;20093;-81
2022/05/21 16:57:40;;;;;;;12.48;3.40;;;15.50;99.90;;;;;;4957603;28;20038;-80
2022/05/21 17:00:06;;;;;;;9.63;1.92;;;15.30;99.90;;;;;;4974597;28;20034;-80
2022/05/21 17:02:32;;;;;;;10.77;2.00;;;15.30;99.90;;;;;;4957099;28;20117;-81
2022/05/21 17:05:00;;;;;;;10.00;1.88;;;15.30;99.90;;;;;;4957206;28;20126;-80
2022/05/21 17:07:28;;;;;;;9.20;1.73;;;15.30;99.90;;;;;;4974645;28;20051;-80
2022/05/21 17:09:54;;;;;;;7.70;1.63;;;15.30;99.90;;;;;;4957195;28;20042;-79
2022/05/21 17:12:22;;;;;;;10.85;1.67;;;15.30;99.90;;;;;;4956971;28;20050;-80
2022/05/21 17:14:48;;;;;;;8.43;1.45;;;15.40;99.90;;;;;;4958463;28;20058;-79
2022/05/21 17:17:14;;;;;;;8.07;1.90;;;15.30;99.90;;;;;;4958671;28;20058;-80
2022/05/21 17:19:40;;;;;;;6.60;1.67;;;15.40;99.90;;;;;;4943386;28;20111;-77
2022/05/21 17:22:16;;;;;;;7.60;1.80;;;15.20;99.90;;;;;;4959350;28;20078;-78
2022/05/21 17:24:41;;;;;;;;;;;15.10;99.90;;;;;;4976580;28;20035;-78
2022/05/21 17:32:51;;;;;;;9.10;1.70;;;15.10;99.90;;;;;;4956544;28;20050;-79
2022/05/21 17:35:18;;;;;;;9.75;1.75;;;15.10;99.90;;;;;;4956542;28;20043;-80